sensor_id;sensor_type;location;lat;lon;timestamp;temperature;humidity
18725;DHT22;65581;52.130;5.584;2022-12-07T00:00:51;3.90;99.90
18725;DHT22;65581;52.130;5.584;2022-12-07T00:03:18;3.90;99.90
18725;DHT22;65581;52.130;5.584;2022-12-07T00:05:45;3.90;99.90
18725;DHT22;65581;52.130;5.584;2022-12-07T00:08:12;3.90;99.90
18725;DHT22;65581;52.130;5.584;2022-12-07T00:10:40;3.90;99.90
18725;DHT22;65581;52.130;5.584;2022-12-07T00:13:07;3.90;99.90
18725;DHT22;65581;52.130;5.584;2022-12-07T00:15:34;3.90;99.90
18725;DHT22;65581;52.130;5.584;2022-12-07T00:18:01;4.10;99.90
18725;DHT22;65581;52.130;5.584;2022-12-07T00:20:28;4.00;99.90
18725;DHT22;65581;52.130;5.584;2022-12-07T00:22:55;4.00;99.90
18725;DHT22;65581;52.130;5.584;2022-12-07T00:25:22;3.90;99.90
18725;DHT22;65581;52.130;5.584;2022-12-07T00:27:52;3.90;99.90
18725;DHT22;65581;52.130;5.584;2022-12-07T00:30:19;3.90;99.90
18725;DHT22;65581;52.130;5.584;2022-12-07T00:32:46;3.90;99.90
18725;DHT22;65581;52.130;5.584;2022-12-07T00:35:13;4.00;99.90
18725;DHT22;65581;52.130;5.584;2022-12-07T00:37:40;3.80;99.90
18725;DHT22;65581;52.130;5.584;2022-12-07T00:40:08;3.80;99.90
18725;DHT22;65581;52.130;5.584;2022-12-07T00:42:35;3.80;99.90
18725;DHT22;65581;52.130;5.584;2022-12-07T00:45:03;3.70;99.90
18725;DHT22;65581;52.130;5.584;2022-12-07T00:47:31;3.60;99.90
18725;DHT22;65581;52.130;5.584;2022-12-07T00:49:57;3.50;99.90
18725;DHT22;65581;52.130;5.584;2022-12-07T00:52:25;3.60;99.90
18725;DHT22;65581;52.130;5.584;2022-12-07T00:54:52;3.50;99.90
18725;DHT22;65581;52.130;5.584;2022-12-07T00:57:19;3.50;99.90
18725;DHT22;65581;52.130;5.584;2022-12-07T00:59:46;3.50;99.90
18725;DHT22;65581;52.130;5.584;2022-12-07T01:02:14;3.40;99.90
18725;DHT22;65581;52.130;5.584;2022-12-07T01:04:41;3.40;99.90
18725;DHT22;65581;52.130;5.584;2022-12-07T01:07:08;3.40;99.90
18725;DHT22;65581;52.130;5.584;2022-12-07T01:09:35;3.40;99.90
18725;DHT22;65581;52.130;5.584;2022-12-07T01:12:02;3.40;99.90
18725;DHT22;65581;52.130;5.584;2022-12-07T01:14:29;3.30;99.90
18725;DHT22;65581;52.130;5.584;2022-12-07T01:16:56;3.30;99.90
18725;DHT22;65581;52.130;5.584;2022-12-07T01:19:24;3.20;99.90
18725;DHT22;65581;52.130;5.584;2022-12-07T01:21:51;3.20;99.90
18725;DHT22;65581;52.130;5.584;2022-12-07T01:24:18;3.20;99.90
18725;DHT22;65581;52.130;5.584;2022-12-07T01:26:45;3.10;99.90
18725;DHT22;65581;52.130;5.584;2022-12-07T01:29:11;3.10;99.90
18725;DHT22;65581;52.130;5.584;2022-12-07T01:31:38;3.00;99.90
18725;DHT22;65581;52.130;5.584;2022-12-07T01:34:05;3.10;99.90
18725;DHT22;65581;52.130;5.584;2022-12-07T01:36:35;3.10;99.90
18725;DHT22;65581;52.130;5.584;2022-12-07T01:39:05;3.10;99.90
18725;DHT22;65581;52.130;5.584;2022-12-07T01:41:35;3.10;99.90
18725;DHT22;65581;52.130;5.584;2022-12-07T01:44:14;3.10;99.90
18725;DHT22;65581;52.130;5.584;2022-12-07T01:46:43;3.10;99.90
18725;DHT22;65581;52.130;5.584;2022-12-07T01:49:13;3.00;99.90
18725;DHT22;65581;52.130;5.584;2022-12-07T01:51:43;3.00;99.90
18725;DHT22;65581;52.130;5.584;2022-12-07T01:54:11;3.00;99.90
18725;DHT22;65581;52.130;5.584;2022-12-07T01:56:40;3.00;99.90
18725;DHT22;65581;52.130;5.584;2022-12-07T01:59:08;2.90;99.90
18725;DHT22;65581;52.130;5.584;2022-12-07T02:01:35;2.90;99.90
18725;DHT22;65581;52.130;5.584;2022-12-07T02:04:02;3.00;99.90
18725;DHT22;65581;52.130;5.584;2022-12-07T02:06:29;3.00;99.90
18725;DHT22;65581;52.130;5.584;2022-12-07T02:08:58;3.10;99.90
18725;DHT22;65581;52.130;5.584;2022-12-07T02:11:25;3.50;99.90
18725;DHT22;65581;52.130;5.584;2022-12-07T02:13:52;3.10;99.90
18725;DHT22;65581;52.130;5.584;2022-12-07T02:16:27;3.10;99.90
18725;DHT22;65581;52.130;5.584;2022-12-07T02:19:41;3.40;99.90
18725;DHT22;65581;52.130;5.584;2022-12-07T02:22:23;3.20;99.90
18725;DHT22;65581;52.130;5.584;2022-12-07T02:25:05;3.20;99.90
18725;DHT22;65581;52.130;5.584;2022-12-07T02:27:39;3.30;99.90
18725;DHT22;65581;52.130;5.584;2022-12-07T02:30:09;3.30;99.90
18725;DHT22;65581;52.130;5.584;2022-12-07T02:32:43;3.30;99.90
18725;DHT22;65581;52.130;5.584;2022-12-07T02:35:15;3.30;99.90
18725;DHT22;65581;52.130;5.584;2022-12-07T02:37:52;3.40;99.90
18725;DHT22;65581;52.130;5.584;2022-12-07T02:40:24;3.40;99.90
18725;DHT22;65581;52.130;5.584;2022-12-07T02:42:57;3.40;99.90
18725;DHT22;65581;52.130;5.584;2022-12-07T02:45:29;3.50;99.90
18725;DHT22;65581;52.130;5.584;2022-12-07T02:47:59;3.50;99.90
18725;DHT22;65581;52.130;5.584;2022-12-07T02:50:27;3.50;99.90
18725;DHT22;65581;52.130;5.584;2022-12-07T02:52:54;3.50;99.90
18725;DHT22;65581;52.130;5.584;2022-12-07T02:55:26;3.60;99.90
18725;DHT22;65581;52.130;5.584;2022-12-07T02:58:23;3.60;99.90
18725;DHT22;65581;52.130;5.584;2022-12-07T03:01:03;3.60;99.90
18725;DHT22;65581;52.130;5.584;2022-12-07T03:03:32;3.60;99.90
18725;DHT22;65581;52.130;5.584;2022-12-07T03:06:07;3.60;99.90
18725;DHT22;65581;52.130;5.584;2022-12-07T03:08:43;3.60;99.90
18725;DHT22;65581;52.130;5.584;2022-12-07T03:11:14;3.60;99.90
18725;DHT22;65581;52.130;5.584;2022-12-07T03:13:47;3.60;99.90
18725;DHT22;65581;52.130;5.584;2022-12-07T03:16:19;4.10;99.90
18725;DHT22;65581;52.130;5.584;2022-12-07T03:18:50;3.60;99.90
18725;DHT22;65581;52.130;5.584;2022-12-07T03:21:20;3.70;99.90
18725;DHT22;65581;52.130;5.584;2022-12-07T03:23:51;3.70;99.90
18725;DHT22;65581;52.130;5.584;2022-12-07T03:26:19;3.70;99.90
18725;DHT22;65581;52.130;5.584;2022-12-07T03:28:51;3.90;99.90
18725;DHT22;65581;52.130;5.584;2022-12-07T03:31:22;4.10;99.90
18725;DHT22;65581;52.130;5.584;2022-12-07T03:33:56;3.70;99.90
18725;DHT22;65581;52.130;5.584;2022-12-07T03:36:28;4.20;99.90
18725;DHT22;65581;52.130;5.584;2022-12-07T03:39:00;3.80;99.90
18725;DHT22;65581;52.130;5.584;2022-12-07T03:41:31;3.80;99.90
18725;DHT22;65581;52.130;5.584;2022-12-07T03:44:00;3.80;99.90
18725;DHT22;65581;52.130;5.584;2022-12-07T03:46:34;3.80;99.90
18725;DHT22;65581;52.130;5.584;2022-12-07T03:49:07;3.80;99.90
18725;DHT22;65581;52.130;5.584;2022-12-07T03:51:39;3.70;99.90
18725;DHT22;65581;52.130;5.584;2022-12-07T03:54:11;3.70;99.90
18725;DHT22;65581;52.130;5.584;2022-12-07T03:56:41;3.60;99.90
18725;DHT22;65581;52.130;5.584;2022-12-07T03:59:09;3.50;99.90
18725;DHT22;65581;52.130;5.584;2022-12-07T04:01:37;3.90;99.90
18725;DHT22;65581;52.130;5.584;2022-12-07T04:04:04;3.50;99.90
18725;DHT22;65581;52.130;5.584;2022-12-07T04:06:31;3.50;99.90
18725;DHT22;65581;52.130;5.584;2022-12-07T04:08:58;3.60;99.90
18725;DHT22;65581;52.130;5.584;2022-12-07T04:11:25;3.60;99.90
18725;DHT22;65581;52.130;5.584;2022-12-07T04:13:51;3.60;99.90
18725;DHT22;65581;52.130;5.584;2022-12-07T04:16:46;3.60;99.90
18725;DHT22;65581;52.130;5.584;2022-12-07T04:19:14;3.60;99.90
18725;DHT22;65581;52.130;5.584;2022-12-07T04:21:41;3.60;99.90
18725;DHT22;65581;52.130;5.584;2022-12-07T04:24:08;3.60;99.90
18725;DHT22;65581;52.130;5.584;2022-12-07T04:26:35;3.70;99.90
18725;DHT22;65581;52.130;5.584;2022-12-07T04:29:02;3.70;99.90
18725;DHT22;65581;52.130;5.584;2022-12-07T04:31:29;3.70;99.90
18725;DHT22;65581;52.130;5.584;2022-12-07T04:33:57;3.70;99.90
18725;DHT22;65581;52.130;5.584;2022-12-07T04:36:24;3.70;99.90
18725;DHT22;65581;52.130;5.584;2022-12-07T04:38:53;3.60;99.90
18725;DHT22;65581;52.130;5.584;2022-12-07T04:41:20;3.60;99.90
18725;DHT22;65581;52.130;5.584;2022-12-07T04:43:52;3.60;99.90
18725;DHT22;65581;52.130;5.584;2022-12-07T04:46:19;3.60;99.90
18725;DHT22;65581;52.130;5.584;2022-12-07T04:48:46;3.50;99.90
18725;DHT22;65581;52.130;5.584;2022-12-07T04:51:17;3.50;99.90
18725;DHT22;65581;52.130;5.584;2022-12-07T04:53:45;3.50;99.90
18725;DHT22;65581;52.130;5.584;2022-12-07T04:56:12;3.70;99.90
18725;DHT22;65581;52.130;5.584;2022-12-07T04:58:39;3.50;99.90
18725;DHT22;65581;52.130;5.584;2022-12-07T05:01:06;3.50;99.90
18725;DHT22;65581;52.130;5.584;2022-12-07T05:03:33;3.50;99.90
18725;DHT22;65581;52.130;5.584;2022-12-07T05:06:00;3.50;99.90
18725;DHT22;65581;52.130;5.584;2022-12-07T05:08:29;3.50;99.90
18725;DHT22;65581;52.130;5.584;2022-12-07T05:10:56;3.50;99.90
18725;DHT22;65581;52.130;5.584;2022-12-07T05:13:23;3.40;99.90
18725;DHT22;65581;52.130;5.584;2022-12-07T05:15:50;3.50;99.90
18725;DHT22;65581;52.130;5.584;2022-12-07T05:18:17;3.40;99.90
18725;DHT22;65581;52.130;5.584;2022-12-07T05:20:44;3.30;99.90
18725;DHT22;65581;52.130;5.584;2022-12-07T05:23:11;3.30;99.90
18725;DHT22;65581;52.130;5.584;2022-12-07T05:25:39;3.30;99.90
18725;DHT22;65581;52.130;5.584;2022-12-07T05:28:06;3.30;99.90
18725;DHT22;65581;52.130;5.584;2022-12-07T05:30:33;3.20;99.90
18725;DHT22;65581;52.130;5.584;2022-12-07T05:33:00;3.20;99.90
18725;DHT22;65581;52.130;5.584;2022-12-07T05:35:30;3.10;99.90
18725;DHT22;65581;52.130;5.584;2022-12-07T05:37:57;3.10;99.90
18725;DHT22;65581;52.130;5.584;2022-12-07T05:40:24;3.10;99.90
18725;DHT22;65581;52.130;5.584;2022-12-07T05:42:52;3.00;99.90
18725;DHT22;65581;52.130;5.584;2022-12-07T05:45:19;3.00;99.90
18725;DHT22;65581;52.130;5.584;2022-12-07T05:47:46;2.90;99.90
18725;DHT22;65581;52.130;5.584;2022-12-07T05:50:13;2.90;99.90
18725;DHT22;65581;52.130;5.584;2022-12-07T05:52:40;2.80;99.90
18725;DHT22;65581;52.130;5.584;2022-12-07T05:55:07;2.80;99.90
18725;DHT22;65581;52.130;5.584;2022-12-07T05:57:34;2.80;99.90
18725;DHT22;65581;52.130;5.584;2022-12-07T06:00:03;3.30;99.90
18725;DHT22;65581;52.130;5.584;2022-12-07T06:02:29;2.90;99.90
18725;DHT22;65581;52.130;5.584;2022-12-07T06:04:56;3.00;99.90
18725;DHT22;65581;52.130;5.584;2022-12-07T06:07:22;3.00;99.90
18725;DHT22;65581;52.130;5.584;2022-12-07T06:09:49;3.00;99.90
18725;DHT22;65581;52.130;5.584;2022-12-07T06:12:16;3.00;99.90
18725;DHT22;65581;52.130;5.584;2022-12-07T06:15:02;3.00;99.90
18725;DHT22;65581;52.130;5.584;2022-12-07T06:17:29;3.10;99.90
18725;DHT22;65581;52.130;5.584;2022-12-07T06:19:56;3.10;99.90
18725;DHT22;65581;52.130;5.584;2022-12-07T06:22:22;3.20;99.90
18725;DHT22;65581;52.130;5.584;2022-12-07T06:24:49;3.20;99.90
18725;DHT22;65581;52.130;5.584;2022-12-07T06:27:16;3.20;99.90
18725;DHT22;65581;52.130;5.584;2022-12-07T06:29:43;3.20;99.90
18725;DHT22;65581;52.130;5.584;2022-12-07T06:32:11;3.20;99.90
18725;DHT22;65581;52.130;5.584;2022-12-07T06:34:38;3.20;99.90
18725;DHT22;65581;52.130;5.584;2022-12-07T06:37:05;3.20;99.90
18725;DHT22;65581;52.130;5.584;2022-12-07T06:39:32;3.20;99.90
18725;DHT22;65581;52.130;5.584;2022-12-07T06:41:59;3.20;99.90
18725;DHT22;65581;52.130;5.584;2022-12-07T06:44:26;3.10;99.90
18725;DHT22;65581;52.130;5.584;2022-12-07T06:46:53;3.10;99.90
18725;DHT22;65581;52.130;5.584;2022-12-07T06:49:22;3.10;99.90
18725;DHT22;65581;52.130;5.584;2022-12-07T06:51:49;3.10;99.90
18725;DHT22;65581;52.130;5.584;2022-12-07T06:54:16;3.10;99.90
18725;DHT22;65581;52.130;5.584;2022-12-07T06:56:44;3.10;99.90
18725;DHT22;65581;52.130;5.584;2022-12-07T06:59:11;3.20;99.90
18725;DHT22;65581;52.130;5.584;2022-12-07T07:01:38;3.10;99.90
18725;DHT22;65581;52.130;5.584;2022-12-07T07:04:05;3.10;99.90
18725;DHT22;65581;52.130;5.584;2022-12-07T07:06:33;3.10;99.90
18725;DHT22;65581;52.130;5.584;2022-12-07T07:09:00;3.10;99.90
18725;DHT22;65581;52.130;5.584;2022-12-07T07:11:27;3.10;99.90
18725;DHT22;65581;52.130;5.584;2022-12-07T07:13:54;3.00;99.90
18725;DHT22;65581;52.130;5.584;2022-12-07T07:16:27;3.00;99.90
18725;DHT22;65581;52.130;5.584;2022-12-07T07:18:54;2.90;99.90
18725;DHT22;65581;52.130;5.584;2022-12-07T07:21:21;2.90;99.90
18725;DHT22;65581;52.130;5.584;2022-12-07T07:23:49;2.90;99.90
18725;DHT22;65581;52.130;5.584;2022-12-07T07:26:17;2.90;99.90
18725;DHT22;65581;52.130;5.584;2022-12-07T07:28:44;2.90;99.90
18725;DHT22;65581;52.130;5.584;2022-12-07T07:31:12;2.80;99.90
18725;DHT22;65581;52.130;5.584;2022-12-07T07:33:38;2.80;99.90
18725;DHT22;65581;52.130;5.584;2022-12-07T07:36:06;2.70;99.90
18725;DHT22;65581;52.130;5.584;2022-12-07T07:38:33;2.80;99.90
18725;DHT22;65581;52.130;5.584;2022-12-07T07:41:02;2.70;99.90
18725;DHT22;65581;52.130;5.584;2022-12-07T07:43:29;2.80;99.90
18725;DHT22;65581;52.130;5.584;2022-12-07T07:45:56;2.70;99.90
18725;DHT22;65581;52.130;5.584;2022-12-07T07:48:22;2.70;99.90
18725;DHT22;65581;52.130;5.584;2022-12-07T07:50:50;3.30;99.90
18725;DHT22;65581;52.130;5.584;2022-12-07T07:53:17;3.00;99.90
18725;DHT22;65581;52.130;5.584;2022-12-07T07:55:51;2.80;99.90
18725;DHT22;65581;52.130;5.584;2022-12-07T07:58:21;2.90;99.90
18725;DHT22;65581;52.130;5.584;2022-12-07T08:00:48;3.00;99.90
18725;DHT22;65581;52.130;5.584;2022-12-07T08:03:15;3.10;99.90
18725;DHT22;65581;52.130;5.584;2022-12-07T08:05:43;3.20;99.90
18725;DHT22;65581;52.130;5.584;2022-12-07T08:08:10;3.20;99.90
18725;DHT22;65581;52.130;5.584;2022-12-07T08:10:38;3.20;99.90
18725;DHT22;65581;52.130;5.584;2022-12-07T08:13:06;3.30;99.90
18725;DHT22;65581;52.130;5.584;2022-12-07T08:15:42;3.30;99.90
18725;DHT22;65581;52.130;5.584;2022-12-07T08:18:09;3.30;99.90
18725;DHT22;65581;52.130;5.584;2022-12-07T08:20:38;3.30;99.90
18725;DHT22;65581;52.130;5.584;2022-12-07T08:23:05;3.40;99.90
18725;DHT22;65581;52.130;5.584;2022-12-07T08:25:33;3.40;99.90
18725;DHT22;65581;52.130;5.584;2022-12-07T08:28:01;3.50;99.90
18725;DHT22;65581;52.130;5.584;2022-12-07T08:30:28;3.60;99.90
18725;DHT22;65581;52.130;5.584;2022-12-07T08:32:57;3.60;99.90
18725;DHT22;65581;52.130;5.584;2022-12-07T08:35:24;3.70;99.90
18725;DHT22;65581;52.130;5.584;2022-12-07T08:37:51;3.70;99.90
18725;DHT22;65581;52.130;5.584;2022-12-07T08:40:18;3.80;99.90
18725;DHT22;65581;52.130;5.584;2022-12-07T08:42:48;3.90;99.90
18725;DHT22;65581;52.130;5.584;2022-12-07T08:45:16;4.00;99.90
18725;DHT22;65581;52.130;5.584;2022-12-07T08:47:47;4.00;99.90
18725;DHT22;65581;52.130;5.584;2022-12-07T08:50:17;4.10;99.90
18725;DHT22;65581;52.130;5.584;2022-12-07T08:52:44;4.20;99.90
18725;DHT22;65581;52.130;5.584;2022-12-07T08:55:12;4.20;99.90
18725;DHT22;65581;52.130;5.584;2022-12-07T08:57:39;4.30;99.90
18725;DHT22;65581;52.130;5.584;2022-12-07T09:00:07;4.20;99.90
18725;DHT22;65581;52.130;5.584;2022-12-07T09:02:34;4.30;99.90
18725;DHT22;65581;52.130;5.584;2022-12-07T09:05:01;4.30;99.90
18725;DHT22;65581;52.130;5.584;2022-12-07T09:07:30;4.30;99.90
18725;DHT22;65581;52.130;5.584;2022-12-07T09:09:58;4.40;99.90
18725;DHT22;65581;52.130;5.584;2022-12-07T09:12:25;4.40;99.90
18725;DHT22;65581;52.130;5.584;2022-12-07T09:14:52;4.40;99.90
18725;DHT22;65581;52.130;5.584;2022-12-07T09:17:19;4.40;99.90
18725;DHT22;65581;52.130;5.584;2022-12-07T09:19:46;4.40;99.90
18725;DHT22;65581;52.130;5.584;2022-12-07T09:22:13;4.40;99.90
18725;DHT22;65581;52.130;5.584;2022-12-07T09:24:41;4.50;99.90
18725;DHT22;65581;52.130;5.584;2022-12-07T09:27:08;4.50;99.90
18725;DHT22;65581;52.130;5.584;2022-12-07T09:29:35;4.50;99.90
18725;DHT22;65581;52.130;5.584;2022-12-07T09:32:03;4.60;99.90
18725;DHT22;65581;52.130;5.584;2022-12-07T09:34:31;4.70;99.90
18725;DHT22;65581;52.130;5.584;2022-12-07T09:36:58;4.80;99.90
18725;DHT22;65581;52.130;5.584;2022-12-07T09:39:28;4.90;99.90
18725;DHT22;65581;52.130;5.584;2022-12-07T09:41:57;5.00;99.90
18725;DHT22;65581;52.130;5.584;2022-12-07T09:44:26;5.00;99.90
18725;DHT22;65581;52.130;5.584;2022-12-07T09:46:53;5.00;99.90
18725;DHT22;65581;52.130;5.584;2022-12-07T09:49:23;5.00;99.90
18725;DHT22;65581;52.130;5.584;2022-12-07T09:52:01;4.90;99.90
18725;DHT22;65581;52.130;5.584;2022-12-07T09:54:29;5.00;99.90
18725;DHT22;65581;52.130;5.584;2022-12-07T09:56:58;4.90;99.90
18725;DHT22;65581;52.130;5.584;2022-12-07T09:59:26;5.00;99.90
18725;DHT22;65581;52.130;5.584;2022-12-07T10:01:53;5.00;99.90
18725;DHT22;65581;52.130;5.584;2022-12-07T10:04:22;5.00;99.90
18725;DHT22;65581;52.130;5.584;2022-12-07T10:06:49;5.00;99.90
18725;DHT22;65581;52.130;5.584;2022-12-07T10:09:18;5.00;99.90
18725;DHT22;65581;52.130;5.584;2022-12-07T10:12:05;5.10;99.90
18725;DHT22;65581;52.130;5.584;2022-12-07T10:14:36;5.10;99.90
18725;DHT22;65581;52.130;5.584;2022-12-07T10:17:30;5.10;99.90
18725;DHT22;65581;52.130;5.584;2022-12-07T10:20:20;5.10;99.90
18725;DHT22;65581;52.130;5.584;2022-12-07T10:23:01;5.10;99.90
18725;DHT22;65581;52.130;5.584;2022-12-07T10:25:31;5.10;99.90
18725;DHT22;65581;52.130;5.584;2022-12-07T10:28:11;5.20;99.90
18725;DHT22;65581;52.130;5.584;2022-12-07T10:30:54;5.20;99.90
18725;DHT22;65581;52.130;5.584;2022-12-07T10:33:34;5.40;99.90
18725;DHT22;65581;52.130;5.584;2022-12-07T10:36:17;5.40;99.90
18725;DHT22;65581;52.130;5.584;2022-12-07T10:38:46;5.50;99.90
18725;DHT22;65581;52.130;5.584;2022-12-07T10:41:13;5.50;99.90
18725;DHT22;65581;52.130;5.584;2022-12-07T10:43:49;5.60;99.90
18725;DHT22;65581;52.130;5.584;2022-12-07T10:46:43;5.60;99.90
18725;DHT22;65581;52.130;5.584;2022-12-07T10:49:46;5.60;99.90
18725;DHT22;65581;52.130;5.584;2022-12-07T10:52:25;5.60;99.90
18725;DHT22;65581;52.130;5.584;2022-12-07T10:55:08;5.70;99.90
18725;DHT22;65581;52.130;5.584;2022-12-07T10:57:53;5.70;99.90
18725;DHT22;65581;52.130;5.584;2022-12-07T11:00:25;5.80;99.90
18725;DHT22;65581;52.130;5.584;2022-12-07T11:03:21;5.90;99.90
18725;DHT22;65581;52.130;5.584;2022-12-07T11:05:53;6.00;99.90
18725;DHT22;65581;52.130;5.584;2022-12-07T11:08:37;6.10;99.90
18725;DHT22;65581;52.130;5.584;2022-12-07T11:11:11;6.20;99.90
18725;DHT22;65581;52.130;5.584;2022-12-07T11:13:44;6.40;99.90
18725;DHT22;65581;52.130;5.584;2022-12-07T11:16:34;6.60;99.90
18725;DHT22;65581;52.130;5.584;2022-12-07T11:19:16;6.70;99.90
18725;DHT22;65581;52.130;5.584;2022-12-07T11:21:55;6.70;99.90
18725;DHT22;65581;52.130;5.584;2022-12-07T11:24:27;6.70;99.90
18725;DHT22;65581;52.130;5.584;2022-12-07T11:27:09;6.60;99.90
18725;DHT22;65581;52.130;5.584;2022-12-07T11:29:54;6.60;99.90
18725;DHT22;65581;52.130;5.584;2022-12-07T11:32:39;6.50;99.90
18725;DHT22;65581;52.130;5.584;2022-12-07T11:35:13;6.50;99.90
18725;DHT22;65581;52.130;5.584;2022-12-07T11:37:49;6.40;99.90
18725;DHT22;65581;52.130;5.584;2022-12-07T11:40:21;6.50;99.90
18725;DHT22;65581;52.130;5.584;2022-12-07T11:42:53;6.40;99.90
18725;DHT22;65581;52.130;5.584;2022-12-07T11:45:27;6.40;99.90
18725;DHT22;65581;52.130;5.584;2022-12-07T11:47:59;6.40;99.90
18725;DHT22;65581;52.130;5.584;2022-12-07T11:50:33;6.50;99.90
18725;DHT22;65581;52.130;5.584;2022-12-07T11:53:05;6.60;99.90
18725;DHT22;65581;52.130;5.584;2022-12-07T11:55:41;6.70;99.90
18725;DHT22;65581;52.130;5.584;2022-12-07T11:58:20;6.80;99.90
18725;DHT22;65581;52.130;5.584;2022-12-07T12:00:51;6.90;99.90
18725;DHT22;65581;52.130;5.584;2022-12-07T12:03:28;7.00;99.90
18725;DHT22;65581;52.130;5.584;2022-12-07T12:05:57;7.10;99.90
18725;DHT22;65581;52.130;5.584;2022-12-07T12:08:27;7.20;99.90
18725;DHT22;65581;52.130;5.584;2022-12-07T12:11:00;7.30;99.90
18725;DHT22;65581;52.130;5.584;2022-12-07T12:13:57;7.30;99.90
18725;DHT22;65581;52.130;5.584;2022-12-07T12:16:56;7.40;99.90
18725;DHT22;65581;52.130;5.584;2022-12-07T12:19:32;7.30;99.90
18725;DHT22;65581;52.130;5.584;2022-12-07T12:22:07;7.20;99.90
18725;DHT22;65581;52.130;5.584;2022-12-07T12:24:37;7.20;99.90
18725;DHT22;65581;52.130;5.584;2022-12-07T12:27:09;7.20;99.90
18725;DHT22;65581;52.130;5.584;2022-12-07T12:29:39;7.20;99.90
18725;DHT22;65581;52.130;5.584;2022-12-07T12:32:14;7.20;99.90
18725;DHT22;65581;52.130;5.584;2022-12-07T12:37:43;7.20;99.90
18725;DHT22;65581;52.130;5.584;2022-12-07T12:40:39;7.60;99.90
18725;DHT22;65581;52.130;5.584;2022-12-07T12:46:51;7.20;99.90
18725;DHT22;65581;52.130;5.584;2022-12-07T12:49:43;7.30;99.90
18725;DHT22;65581;52.130;5.584;2022-12-07T12:55:18;7.60;99.90
18725;DHT22;65581;52.130;5.584;2022-12-07T12:57:47;7.70;99.90
18725;DHT22;65581;52.130;5.584;2022-12-07T13:00:19;7.80;99.90
18725;DHT22;65581;52.130;5.584;2022-12-07T13:02:50;7.80;99.90
18725;DHT22;65581;52.130;5.584;2022-12-07T13:05:20;7.80;99.90
18725;DHT22;65581;52.130;5.584;2022-12-07T13:07:57;7.80;99.90
18725;DHT22;65581;52.130;5.584;2022-12-07T13:10:41;7.70;99.90
18725;DHT22;65581;52.130;5.584;2022-12-07T13:13:31;7.60;99.90
18725;DHT22;65581;52.130;5.584;2022-12-07T13:18:58;7.30;99.90
18725;DHT22;65581;52.130;5.584;2022-12-07T13:21:43;7.20;99.90
18725;DHT22;65581;52.130;5.584;2022-12-07T13:24:12;7.00;99.90
18725;DHT22;65581;52.130;5.584;2022-12-07T13:26:42;6.60;99.90
18725;DHT22;65581;52.130;5.584;2022-12-07T13:29:12;6.30;99.90
18725;DHT22;65581;52.130;5.584;2022-12-07T13:31:41;6.20;99.90
18725;DHT22;65581;52.130;5.584;2022-12-07T13:34:30;6.00;99.90
18725;DHT22;65581;52.130;5.584;2022-12-07T13:36:59;5.80;99.90
18725;DHT22;65581;52.130;5.584;2022-12-07T13:39:27;5.70;99.90
18725;DHT22;65581;52.130;5.584;2022-12-07T13:41:57;5.60;99.90
18725;DHT22;65581;52.130;5.584;2022-12-07T13:44:25;5.60;99.90
18725;DHT22;65581;52.130;5.584;2022-12-07T13:46:58;5.50;99.90
18725;DHT22;65581;52.130;5.584;2022-12-07T13:49:28;5.50;99.90
18725;DHT22;65581;52.130;5.584;2022-12-07T13:52:12;5.50;99.90
18725;DHT22;65581;52.130;5.584;2022-12-07T13:54:44;5.50;99.90
18725;DHT22;65581;52.130;5.584;2022-12-07T13:57:13;5.50;99.90
18725;DHT22;65581;52.130;5.584;2022-12-07T13:59:40;5.70;99.90
18725;DHT22;65581;52.130;5.584;2022-12-07T14:02:18;5.60;99.90
18725;DHT22;65581;52.130;5.584;2022-12-07T14:04:48;5.60;99.90
18725;DHT22;65581;52.130;5.584;2022-12-07T14:07:21;5.60;99.90
18725;DHT22;65581;52.130;5.584;2022-12-07T14:09:57;5.70;99.90
18725;DHT22;65581;52.130;5.584;2022-12-07T14:12:26;5.70;99.90
18725;DHT22;65581;52.130;5.584;2022-12-07T14:14:54;5.70;99.90
18725;DHT22;65581;52.130;5.584;2022-12-07T14:17:23;5.90;99.90
18725;DHT22;65581;52.130;5.584;2022-12-07T14:19:52;5.70;99.90
18725;DHT22;65581;52.130;5.584;2022-12-07T14:22:26;5.70;99.90
18725;DHT22;65581;52.130;5.584;2022-12-07T14:25:16;5.70;99.90
18725;DHT22;65581;52.130;5.584;2022-12-07T14:27:51;5.80;99.90
18725;DHT22;65581;52.130;5.584;2022-12-07T14:30:21;5.70;99.90
18725;DHT22;65581;52.130;5.584;2022-12-07T14:32:52;5.70;99.90
18725;DHT22;65581;52.130;5.584;2022-12-07T14:35:20;5.70;99.90
18725;DHT22;65581;52.130;5.584;2022-12-07T14:37:48;5.70;99.90
18725;DHT22;65581;52.130;5.584;2022-12-07T14:40:17;5.70;99.90
18725;DHT22;65581;52.130;5.584;2022-12-07T14:42:46;5.70;99.90
18725;DHT22;65581;52.130;5.584;2022-12-07T14:45:17;5.60;99.90
18725;DHT22;65581;52.130;5.584;2022-12-07T14:47:45;5.60;99.90
18725;DHT22;65581;52.130;5.584;2022-12-07T14:50:14;5.60;99.90
18725;DHT22;65581;52.130;5.584;2022-12-07T14:52:42;5.60;99.90
18725;DHT22;65581;52.130;5.584;2022-12-07T14:55:14;5.60;99.90
18725;DHT22;65581;52.130;5.584;2022-12-07T14:57:41;5.60;99.90
18725;DHT22;65581;52.130;5.584;2022-12-07T15:00:13;5.60;99.90
18725;DHT22;65581;52.130;5.584;2022-12-07T15:02:42;5.50;99.90
18725;DHT22;65581;52.130;5.584;2022-12-07T15:05:09;5.50;99.90
18725;DHT22;65581;52.130;5.584;2022-12-07T15:07:36;5.50;99.90
18725;DHT22;65581;52.130;5.584;2022-12-07T15:10:03;5.50;99.90
18725;DHT22;65581;52.130;5.584;2022-12-07T15:12:30;5.50;99.90
18725;DHT22;65581;52.130;5.584;2022-12-07T15:14:57;5.50;99.90
18725;DHT22;65581;52.130;5.584;2022-12-07T15:17:24;5.90;99.90
18725;DHT22;65581;52.130;5.584;2022-12-07T15:19:52;5.50;99.90
18725;DHT22;65581;52.130;5.584;2022-12-07T15:22:19;5.50;99.90
18725;DHT22;65581;52.130;5.584;2022-12-07T15:24:46;5.50;99.90
18725;DHT22;65581;52.130;5.584;2022-12-07T15:27:12;5.50;99.90
18725;DHT22;65581;52.130;5.584;2022-12-07T15:29:39;5.70;99.90
18725;DHT22;65581;52.130;5.584;2022-12-07T15:32:06;5.50;99.90
18725;DHT22;65581;52.130;5.584;2022-12-07T15:34:33;5.50;99.90
18725;DHT22;65581;52.130;5.584;2022-12-07T15:37:01;5.50;99.90
18725;DHT22;65581;52.130;5.584;2022-12-07T15:39:28;5.50;99.90
18725;DHT22;65581;52.130;5.584;2022-12-07T15:41:55;5.40;99.90
18725;DHT22;65581;52.130;5.584;2022-12-07T15:44:21;5.40;99.90
18725;DHT22;65581;52.130;5.584;2022-12-07T15:47:06;5.30;99.90
18725;DHT22;65581;52.130;5.584;2022-12-07T15:49:32;5.30;99.90
18725;DHT22;65581;52.130;5.584;2022-12-07T15:52:01;5.30;99.90
18725;DHT22;65581;52.130;5.584;2022-12-07T15:54:28;5.30;99.90
18725;DHT22;65581;52.130;5.584;2022-12-07T15:56:56;5.20;99.90
18725;DHT22;65581;52.130;5.584;2022-12-07T15:59:23;5.20;99.90
18725;DHT22;65581;52.130;5.584;2022-12-07T16:01:52;5.20;99.90
18725;DHT22;65581;52.130;5.584;2022-12-07T16:04:18;5.20;99.90
18725;DHT22;65581;52.130;5.584;2022-12-07T16:06:45;5.10;99.90
18725;DHT22;65581;52.130;5.584;2022-12-07T16:09:14;5.10;99.90
18725;DHT22;65581;52.130;5.584;2022-12-07T16:11:41;5.10;99.90
18725;DHT22;65581;52.130;5.584;2022-12-07T16:14:08;5.10;99.90
18725;DHT22;65581;52.130;5.584;2022-12-07T16:16:35;5.50;99.90
18725;DHT22;65581;52.130;5.584;2022-12-07T16:19:02;5.00;99.90